createdAt,value
2022-10-21T00:00:03.455Z,16.17
2022-10-21T00:01:03.523Z,16.18
2022-10-21T00:02:02.633Z,16.17
2022-10-21T00:03:02.579Z,16.21
2022-10-21T00:04:02.923Z,16.27
2022-10-21T00:05:02.722Z,16.29
2022-10-21T00:06:03.045Z,16.29
2022-10-21T00:07:03.584Z,16.27
2022-10-21T00:08:03.046Z,16.28
2022-10-21T00:09:03.649Z,16.29
2022-10-21T00:10:03.398Z,16.28
2022-10-21T00:11:03.022Z,16.28
2022-10-21T00:12:03.141Z,16.28
2022-10-21T00:13:03.177Z,16.27
2022-10-21T00:14:02.953Z,16.29
2022-10-21T00:15:02.745Z,16.30
2022-10-21T00:16:03.251Z,16.30
2022-10-21T00:17:02.786Z,16.31
2022-10-21T00:18:03.004Z,16.28
2022-10-21T00:19:03.078Z,16.32
2022-10-21T00:20:02.896Z,16.33
2022-10-21T00:21:03.375Z,16.35
2022-10-21T00:22:03.069Z,16.34
2022-10-21T00:23:02.996Z,16.33
2022-10-21T00:24:03.191Z,16.32
2022-10-21T00:25:03.505Z,16.31
2022-10-21T00:26:03.257Z,16.29
2022-10-21T00:27:03.182Z,16.30
2022-10-21T00:28:03.099Z,16.28
2022-10-21T00:29:03.315Z,16.28
2022-10-21T00:30:03.492Z,16.31
2022-10-21T00:31:03.521Z,16.30
2022-10-21T00:32:02.697Z,16.37
2022-10-21T00:33:03.382Z,16.39
2022-10-21T00:34:02.614Z,16.40
2022-10-21T00:35:02.586Z,16.39
2022-10-21T00:36:02.432Z,16.38
2022-10-21T00:37:03.394Z,16.38
2022-10-21T00:38:03.282Z,16.41
2022-10-21T00:39:03.147Z,16.43
2022-10-21T00:40:03.474Z,16.48
2022-10-21T00:41:03.430Z,16.47
2022-10-21T00:42:03.346Z,16.44
2022-10-21T00:43:03.867Z,16.42
2022-10-21T00:44:03.603Z,16.39
2022-10-21T00:45:03.526Z,16.38
2022-10-21T00:46:03.404Z,16.38
2022-10-21T00:47:02.925Z,16.37
2022-10-21T00:48:02.993Z,16.38
2022-10-21T00:49:02.865Z,16.41
2022-10-21T00:50:03.375Z,16.40
2022-10-21T00:51:03.141Z,16.38
2022-10-21T00:52:03.129Z,16.39
2022-10-21T00:53:03.168Z,16.39
2022-10-21T00:54:03.037Z,16.38
2022-10-21T00:55:02.979Z,16.34
2022-10-21T00:56:03.449Z,16.34
2022-10-21T00:57:02.915Z,16.33
2022-10-21T00:58:03.022Z,16.31
2022-10-21T00:59:03.510Z,16.34
2022-10-21T01:00:03.511Z,16.32
2022-10-21T01:01:03.456Z,16.30
2022-10-21T01:02:03.577Z,16.29
2022-10-21T01:03:03.608Z,16.28
2022-10-21T01:04:03.567Z,16.27
2022-10-21T01:05:03.514Z,16.25
2022-10-21T01:06:03.557Z,16.27
2022-10-21T01:07:03.641Z,16.29
2022-10-21T01:08:03.119Z,16.28
2022-10-21T01:09:03.597Z,16.27
2022-10-21T01:10:03.670Z,16.29
2022-10-21T01:11:03.321Z,16.31
2022-10-21T01:12:03.138Z,16.34
2022-10-21T01:13:02.891Z,16.34
2022-10-21T01:14:02.843Z,16.33
2022-10-21T01:16:02.973Z,16.28
2022-10-21T01:17:02.993Z,16.27
2022-10-21T01:18:02.829Z,16.28
2022-10-21T01:19:02.788Z,16.29
2022-10-21T01:20:03.088Z,16.30
2022-10-21T01:21:03.147Z,16.28
2022-10-21T01:22:03.378Z,16.26
2022-10-21T01:23:03.587Z,16.25
2022-10-21T01:24:03.721Z,16.23
2022-10-21T01:25:03.694Z,16.20
2022-10-21T01:26:03.664Z,16.17
2022-10-21T01:27:03.546Z,16.18
2022-10-21T01:28:03.813Z,16.19
2022-10-21T01:29:03.982Z,16.19
2022-10-21T01:30:03.559Z,16.18
2022-10-21T01:31:03.376Z,16.17
2022-10-21T01:32:02.648Z,16.16
2022-10-21T01:33:02.679Z,16.15
2022-10-21T01:34:02.988Z,16.15
2022-10-21T01:35:03.171Z,16.15
2022-10-21T01:36:02.819Z,16.17
2022-10-21T01:37:02.970Z,16.16
2022-10-21T01:38:03.149Z,16.16
2022-10-21T01:39:02.830Z,16.20
2022-10-21T01:40:03.511Z,16.23
2022-10-21T01:41:02.969Z,16.24
2022-10-21T01:42:03.067Z,16.24
2022-10-21T01:43:03.017Z,16.24
2022-10-21T01:44:02.646Z,16.24
2022-10-21T01:45:02.515Z,16.24
2022-10-21T01:46:02.661Z,16.25
2022-10-21T01:47:03.218Z,16.25
2022-10-21T01:48:03.068Z,16.26
2022-10-21T01:49:03.586Z,16.24
2022-10-21T01:50:03.105Z,16.24
2022-10-21T01:51:03.596Z,16.24
2022-10-21T01:52:02.848Z,16.24
2022-10-21T01:53:02.649Z,16.25
2022-10-21T01:54:02.759Z,16.29
2022-10-21T01:55:02.583Z,16.22
2022-10-21T01:56:02.815Z,16.18
2022-10-21T01:57:03.511Z,16.15
2022-10-21T01:58:03.028Z,16.18
2022-10-21T01:59:03.055Z,16.14
2022-10-21T02:00:03.568Z,16.13
2022-10-21T02:01:03.156Z,16.14
2022-10-21T02:02:02.808Z,16.15
2022-10-21T02:03:02.800Z,16.14
2022-10-21T02:04:02.653Z,16.11
2022-10-21T02:05:02.588Z,16.12
2022-10-21T02:06:03.148Z,16.12
2022-10-21T02:07:03.419Z,16.10
2022-10-21T02:08:03.231Z,16.12
2022-10-21T02:09:03.548Z,16.14
2022-10-21T02:10:03.231Z,16.15
2022-10-21T02:11:03.459Z,16.12
2022-10-21T02:12:03.066Z,16.12
2022-10-21T02:13:03.051Z,16.14
2022-10-21T02:14:02.934Z,16.14
2022-10-21T02:15:02.620Z,16.13
2022-10-21T02:16:03.091Z,16.13
2022-10-21T02:17:03.216Z,16.13
2022-10-21T02:18:03.763Z,16.16
2022-10-21T02:19:03.355Z,16.17
2022-10-21T02:20:03.773Z,16.16
2022-10-21T02:21:03.439Z,16.16
2022-10-21T02:22:02.907Z,16.16
2022-10-21T02:23:03.187Z,16.13
2022-10-21T02:24:02.784Z,16.12
2022-10-21T02:25:03.201Z,16.13
2022-10-21T02:26:03.099Z,16.13
2022-10-21T02:27:03.512Z,16.13
2022-10-21T02:28:03.501Z,16.16
2022-10-21T02:29:03.295Z,16.17
2022-10-21T02:30:03.211Z,16.19
2022-10-21T02:31:03.494Z,16.18
2022-10-21T02:32:03.706Z,16.21
2022-10-21T02:33:03.315Z,16.20
2022-10-21T02:34:03.695Z,16.18
2022-10-21T02:35:03.410Z,16.18
2022-10-21T02:36:03.270Z,16.19
2022-10-21T02:37:03.289Z,16.20
2022-10-21T02:38:03.436Z,16.22
2022-10-21T02:39:03.522Z,16.20
2022-10-21T02:40:03.902Z,16.22
2022-10-21T02:41:03.416Z,16.20
2022-10-21T02:42:03.681Z,16.18
2022-10-21T02:43:03.788Z,16.18
2022-10-21T02:44:03.509Z,16.17
2022-10-21T02:45:03.377Z,16.17
2022-10-21T02:46:03.544Z,16.17
2022-10-21T02:47:03.765Z,16.17
2022-10-21T02:48:03.904Z,16.19
2022-10-21T02:49:03.604Z,16.21
2022-10-21T02:50:04.021Z,16.21
2022-10-21T02:51:03.878Z,16.21
2022-10-21T02:52:03.126Z,16.20
2022-10-21T02:53:02.870Z,16.19
2022-10-21T02:54:03.004Z,16.17
2022-10-21T02:55:03.495Z,16.18
2022-10-21T02:56:03.155Z,16.19
2022-10-21T02:57:03.170Z,16.15
2022-10-21T02:58:03.510Z,16.15
2022-10-21T02:59:03.082Z,16.14
2022-10-21T03:00:03.619Z,16.14
2022-10-21T03:01:03.190Z,16.11
2022-10-21T03:02:03.261Z,16.09
2022-10-21T03:03:02.760Z,16.09
2022-10-21T03:04:03.008Z,16.09
2022-10-21T03:05:02.883Z,16.08
2022-10-21T03:06:03.251Z,16.07
2022-10-21T03:07:03.231Z,16.06
2022-10-21T03:08:03.220Z,16.06
2022-10-21T03:09:03.121Z,16.06
2022-10-21T03:10:03.193Z,16.04
2022-10-21T03:11:03.117Z,16.05
2022-10-21T03:12:03.517Z,16.03
2022-10-21T03:13:03.397Z,16.00
2022-10-21T03:14:03.826Z,16.00
2022-10-21T03:15:03.468Z,16.01
2022-10-21T03:16:03.879Z,16.01
2022-10-21T03:17:02.571Z,16.00
2022-10-21T03:18:02.540Z,15.98
2022-10-21T03:19:02.623Z,15.96
2022-10-21T03:20:03.051Z,15.95
2022-10-21T03:21:02.508Z,15.92
2022-10-21T03:22:03.027Z,15.92
2022-10-21T03:23:03.520Z,15.90
2022-10-21T03:24:05.635Z,15.88
2022-10-21T03:25:03.199Z,15.84
2022-10-21T03:26:03.048Z,15.84
2022-10-21T03:27:02.530Z,15.81
2022-10-21T03:28:03.080Z,15.83
2022-10-21T03:29:02.643Z,15.81
2022-10-21T03:30:02.820Z,15.79
2022-10-21T03:31:02.716Z,15.80
2022-10-21T03:32:03.830Z,15.80
2022-10-21T03:33:03.268Z,15.77
2022-10-21T03:34:03.535Z,15.74
2022-10-21T03:35:03.215Z,15.74
2022-10-21T03:36:03.261Z,15.74
2022-10-21T03:37:02.665Z,15.73
2022-10-21T03:38:03.298Z,15.74
2022-10-21T03:39:03.101Z,15.74
2022-10-21T03:40:03.033Z,15.72
2022-10-21T03:41:02.869Z,15.70
2022-10-21T03:42:03.791Z,15.71
2022-10-21T03:43:03.341Z,15.72
2022-10-21T03:44:03.510Z,15.72
2022-10-21T03:45:03.316Z,15.71
2022-10-21T03:46:03.823Z,15.73
2022-10-21T03:47:03.453Z,15.74
2022-10-21T03:48:03.421Z,15.75
2022-10-21T03:49:04.938Z,15.73
2022-10-21T03:50:05.428Z,15.71
2022-10-21T03:51:03.500Z,15.69
2022-10-21T03:52:02.996Z,15.71
2022-10-21T03:53:13.517Z,15.72
2022-10-21T03:54:02.996Z,15.70
2022-10-21T03:55:02.807Z,15.70
2022-10-21T03:56:03.267Z,15.72
2022-10-21T03:57:03.579Z,15.72
2022-10-21T03:58:03.517Z,15.74
2022-10-21T03:59:03.208Z,15.75
2022-10-21T04:00:03.729Z,15.75
2022-10-21T04:01:03.177Z,15.77
2022-10-21T04:02:02.781Z,15.77
2022-10-21T04:03:02.943Z,15.77
2022-10-21T04:04:02.474Z,15.75
2022-10-21T04:05:02.929Z,15.80
2022-10-21T04:06:02.676Z,15.82
2022-10-21T04:07:03.098Z,15.82
2022-10-21T04:08:02.892Z,15.85
2022-10-21T04:09:03.529Z,15.83
2022-10-21T04:10:03.095Z,15.83
2022-10-21T04:11:03.484Z,15.83
2022-10-21T04:12:02.730Z,15.80
2022-10-21T04:13:03.075Z,15.81
2022-10-21T04:14:02.753Z,15.79
2022-10-21T04:15:02.497Z,15.79
2022-10-21T04:16:02.746Z,15.81
2022-10-21T04:17:07.659Z,15.84
2022-10-21T04:18:03.518Z,15.83
2022-10-21T04:19:03.042Z,15.83
2022-10-21T04:20:03.512Z,15.86
2022-10-21T04:21:03.556Z,15.88
2022-10-21T04:22:02.506Z,15.89
2022-10-21T04:23:03.025Z,15.91
2022-10-21T04:24:03.067Z,15.92
2022-10-21T04:25:04.741Z,15.92
2022-10-21T04:26:02.826Z,15.90
2022-10-21T04:27:03.525Z,15.92
2022-10-21T04:28:03.192Z,15.95
2022-10-21T04:29:03.577Z,15.96
2022-10-21T04:30:03.248Z,15.94
2022-10-21T04:31:03.354Z,15.95
2022-10-21T04:32:02.955Z,15.95
2022-10-21T04:33:02.713Z,15.95
2022-10-21T04:34:02.509Z,15.98
2022-10-21T04:35:02.829Z,16.02
2022-10-21T04:36:03.035Z,16.03
2022-10-21T04:37:05.177Z,16.03
2022-10-21T04:38:03.488Z,16.02
2022-10-21T04:39:03.144Z,16.03
2022-10-21T04:40:03.597Z,16.05
2022-10-21T04:41:03.472Z,16.06
2022-10-21T04:42:03.934Z,16.08
2022-10-21T04:43:03.263Z,16.08
2022-10-21T04:44:03.460Z,16.08
2022-10-21T04:45:03.306Z,16.06
2022-10-21T04:46:06.469Z,16.08
2022-10-21T04:47:03.220Z,16.10
2022-10-21T04:48:03.042Z,16.08
2022-10-21T04:49:03.028Z,16.07
2022-10-21T04:50:03.137Z,16.09
2022-10-21T04:51:02.896Z,16.07
2022-10-21T04:52:03.474Z,16.07
2022-10-21T04:53:03.358Z,16.07
2022-10-21T04:54:03.400Z,16.10
2022-10-21T04:55:03.919Z,16.10
2022-10-21T04:56:03.436Z,16.10
2022-10-21T04:57:03.885Z,16.09
2022-10-21T04:58:03.485Z,16.10
2022-10-21T04:59:03.908Z,16.12
2022-10-21T05:00:03.755Z,16.14
2022-10-21T05:01:03.865Z,16.17
2022-10-21T05:02:03.498Z,16.18
2022-10-21T05:03:03.096Z,16.21
2022-10-21T05:04:03.050Z,16.24
2022-10-21T05:05:03.396Z,16.25
2022-10-21T05:06:03.327Z,16.27
2022-10-21T05:07:02.790Z,16.30
2022-10-21T05:08:02.291Z,16.31
2022-10-21T05:09:02.276Z,16.30
2022-10-21T05:10:02.305Z,16.29
2022-10-21T05:11:02.783Z,16.32
2022-10-21T05:12:03.199Z,16.32
2022-10-21T05:13:02.757Z,16.34
2022-10-21T05:14:03.057Z,16.35
2022-10-21T05:15:03.216Z,16.37
2022-10-21T05:16:02.695Z,16.38
2022-10-21T05:17:02.891Z,16.35
2022-10-21T05:18:02.830Z,16.35
2022-10-21T05:19:02.261Z,16.37
2022-10-21T05:20:02.687Z,16.42
2022-10-21T05:21:02.681Z,16.41
2022-10-21T05:22:03.171Z,16.43
2022-10-21T05:23:02.729Z,16.43
2022-10-21T05:24:02.981Z,16.44
2022-10-21T05:25:02.912Z,16.45
2022-10-21T05:26:02.900Z,16.49
2022-10-21T05:27:02.575Z,16.48
2022-10-21T05:28:02.587Z,16.47
2022-10-21T05:29:03.181Z,16.47
2022-10-21T05:30:02.850Z,16.50
2022-10-21T05:31:02.602Z,16.49
2022-10-21T05:32:02.484Z,16.49
2022-10-21T05:33:02.169Z,16.48
2022-10-21T05:34:02.341Z,16.48
2022-10-21T05:35:02.145Z,16.48
2022-10-21T05:36:02.524Z,16.47
2022-10-21T05:37:02.370Z,16.44
2022-10-21T05:38:02.548Z,16.44
2022-10-21T05:39:02.942Z,16.45
2022-10-21T05:40:02.401Z,16.43
2022-10-21T05:41:02.768Z,16.41
2022-10-21T05:42:02.641Z,16.43
2022-10-21T05:43:03.085Z,16.41
2022-10-21T05:44:02.572Z,16.43
2022-10-21T05:45:03.174Z,16.44
2022-10-21T05:46:02.589Z,16.46
2022-10-21T05:47:03.108Z,16.47
2022-10-21T05:48:03.681Z,16.49
2022-10-21T05:49:03.092Z,16.48
2022-10-21T05:50:03.586Z,16.48
2022-10-21T05:51:03.671Z,16.48
2022-10-21T05:52:03.159Z,16.49
2022-10-21T05:53:03.522Z,16.48
2022-10-21T05:54:03.099Z,16.47
2022-10-21T05:55:03.709Z,16.47
2022-10-21T05:56:03.667Z,16.45
2022-10-21T05:57:02.628Z,16.48
2022-10-21T05:58:02.717Z,16.44
2022-10-21T05:59:05.500Z,16.43
2022-10-21T06:00:02.947Z,16.41
2022-10-21T06:01:03.166Z,16.36
2022-10-21T06:02:01.674Z,16.29
2022-10-21T06:03:02.158Z,16.27
2022-10-21T06:04:02.008Z,16.27
2022-10-21T06:05:02.060Z,16.25
2022-10-21T06:06:02.302Z,16.24
2022-10-21T06:07:02.150Z,16.17
2022-10-21T06:08:02.648Z,16.13
2022-10-21T06:09:02.091Z,16.12
2022-10-21T06:10:01.960Z,16.10
2022-10-21T06:11:02.460Z,16.08
2022-10-21T06:12:02.380Z,16.08
2022-10-21T06:13:02.173Z,16.09
2022-10-21T06:14:02.819Z,16.10
2022-10-21T06:15:02.196Z,16.09
2022-10-21T06:16:02.878Z,16.09
2022-10-21T06:17:02.585Z,16.11
2022-10-21T06:18:02.455Z,16.12
2022-10-21T06:19:03.039Z,16.15
2022-10-21T06:20:02.964Z,16.16
2022-10-21T06:21:02.574Z,16.13
2022-10-21T06:22:02.278Z,16.16
2022-10-21T06:23:02.122Z,16.15
2022-10-21T06:24:02.647Z,16.15
2022-10-21T06:25:02.358Z,16.14
2022-10-21T06:26:02.174Z,16.16
2022-10-21T06:27:03.129Z,16.16
2022-10-21T06:28:03.035Z,16.18
2022-10-21T06:29:02.816Z,16.18
2022-10-21T06:30:03.100Z,16.20
2022-10-21T06:31:03.199Z,16.19
2022-10-21T06:32:03.036Z,16.21
2022-10-21T06:33:02.902Z,16.25
2022-10-21T06:34:03.217Z,16.25
2022-10-21T06:35:03.161Z,16.30
2022-10-21T06:36:03.051Z,16.30
2022-10-21T06:37:02.679Z,16.32
2022-10-21T06:38:02.691Z,16.33
2022-10-21T06:39:02.672Z,16.34
2022-10-21T06:40:02.656Z,16.36
2022-10-21T06:41:02.646Z,16.35
2022-10-21T06:42:02.203Z,16.33
2022-10-21T06:43:02.129Z,16.34
2022-10-21T06:44:02.084Z,16.37
2022-10-21T06:45:02.361Z,16.37
2022-10-21T06:46:02.417Z,16.33
2022-10-21T06:47:02.422Z,16.32
2022-10-21T06:48:02.264Z,16.34
2022-10-21T06:49:02.119Z,16.32
2022-10-21T06:50:02.609Z,16.32
2022-10-21T06:51:02.218Z,16.30
2022-10-21T06:52:02.783Z,16.29
2022-10-21T06:53:02.767Z,16.30
2022-10-21T06:54:02.460Z,16.31
2022-10-21T06:55:02.964Z,16.32
2022-10-21T06:56:02.910Z,16.33
2022-10-21T06:57:02.864Z,16.32
2022-10-21T06:58:02.917Z,16.32
2022-10-21T06:59:02.713Z,16.32
2022-10-21T07:00:03.018Z,16.33
2022-10-21T07:01:02.514Z,16.33
2022-10-21T07:02:03.189Z,16.31
2022-10-21T07:03:03.135Z,16.30
2022-10-21T07:04:03.107Z,16.30
2022-10-21T07:05:03.074Z,16.30
2022-10-21T07:06:02.783Z,16.30
2022-10-21T07:07:02.482Z,16.29
2022-10-21T07:08:02.874Z,16.30
2022-10-21T07:09:02.629Z,16.31
2022-10-21T07:10:02.389Z,16.34
2022-10-21T07:11:02.349Z,16.33
2022-10-21T07:12:03.063Z,16.37
2022-10-21T07:13:02.990Z,16.38
2022-10-21T07:14:03.162Z,16.37
2022-10-21T07:15:03.126Z,16.37
2022-10-21T07:16:02.679Z,16.37
2022-10-21T07:17:02.164Z,16.34
2022-10-21T07:18:02.547Z,16.32
2022-10-21T07:19:02.164Z,16.33
2022-10-21T07:20:02.523Z,16.31
2022-10-21T07:21:02.393Z,16.32
2022-10-21T07:22:02.374Z,16.32
2022-10-21T07:23:02.416Z,16.34
2022-10-21T07:24:02.158Z,16.36
2022-10-21T07:25:02.344Z,16.39
2022-10-21T07:26:02.151Z,16.39
2022-10-21T07:27:02.718Z,16.40
2022-10-21T07:28:02.738Z,16.40
2022-10-21T07:29:02.325Z,16.41
2022-10-21T07:30:02.723Z,16.43
2022-10-21T07:31:02.447Z,16.45
2022-10-21T07:32:02.890Z,16.46
2022-10-21T07:33:02.514Z,16.46
2022-10-21T07:35:02.771Z,16.47
2022-10-21T07:36:02.733Z,16.51
2022-10-21T07:37:03.367Z,16.51
2022-10-21T07:38:02.954Z,16.55
2022-10-21T07:39:03.021Z,16.56
2022-10-21T07:40:03.353Z,16.56
2022-10-21T07:41:03.122Z,16.58
2022-10-21T07:42:02.570Z,16.59
2022-10-21T07:43:02.296Z,16.62
2022-10-21T07:44:02.285Z,16.64
2022-10-21T07:45:02.214Z,16.63
2022-10-21T07:46:06.029Z,16.67
2022-10-21T07:47:03.087Z,16.66
2022-10-21T07:48:02.593Z,16.69
2022-10-21T07:49:02.579Z,16.69
2022-10-21T07:50:02.525Z,16.66
2022-10-21T07:51:03.191Z,16.67
2022-10-21T07:52:02.703Z,16.65
2022-10-21T07:53:12.044Z,16.66
2022-10-21T07:54:02.422Z,16.64
2022-10-21T07:55:02.659Z,16.64
2022-10-21T07:56:02.255Z,16.65
2022-10-21T07:57:03.242Z,16.71
2022-10-21T07:58:02.957Z,16.71
2022-10-21T07:59:02.830Z,16.73
2022-10-21T08:00:03.240Z,16.74
2022-10-21T08:01:03.324Z,16.74
2022-10-21T08:02:03.319Z,16.77
2022-10-21T08:03:02.817Z,16.77
2022-10-21T08:04:03.109Z,16.78
2022-10-21T08:05:03.386Z,16.77
2022-10-21T08:06:03.170Z,16.76
2022-10-21T08:07:02.734Z,16.75
2022-10-21T08:08:02.290Z,16.77
2022-10-21T08:09:02.265Z,16.79
2022-10-21T08:10:02.201Z,16.82
2022-10-21T08:11:02.672Z,16.83
2022-10-21T08:12:03.217Z,16.86
2022-10-21T08:13:03.566Z,16.89
2022-10-21T08:14:02.907Z,16.89
2022-10-21T08:15:02.815Z,16.90
2022-10-21T08:16:02.757Z,16.93
2022-10-21T08:17:02.236Z,16.92
2022-10-21T08:18:02.689Z,16.93
2022-10-21T08:19:02.420Z,16.95
2022-10-21T08:20:02.295Z,16.94
2022-10-21T08:21:02.743Z,16.93
2022-10-21T08:22:02.538Z,16.93
2022-10-21T08:23:02.691Z,16.92
2022-10-21T08:24:02.791Z,16.93
2022-10-21T08:25:02.836Z,16.93
2022-10-21T08:26:02.724Z,16.96
2022-10-21T08:27:02.691Z,16.99
2022-10-21T08:28:02.946Z,17.00
2022-10-21T08:29:03.333Z,17.03
2022-10-21T08:30:02.832Z,17.03
2022-10-21T08:31:02.811Z,17.08
2022-10-21T08:32:02.351Z,17.07
2022-10-21T08:33:02.370Z,17.08
2022-10-21T08:34:02.934Z,17.08
2022-10-21T08:35:02.532Z,17.08
2022-10-21T08:36:02.673Z,17.09
2022-10-21T08:37:02.632Z,17.11
2022-10-21T08:38:02.627Z,17.12
2022-10-21T08:39:02.564Z,17.17
2022-10-21T08:40:02.556Z,17.18
2022-10-21T08:41:03.126Z,17.20
2022-10-21T08:42:03.136Z,17.18
2022-10-21T08:43:03.682Z,17.17
2022-10-21T08:44:03.377Z,17.18
2022-10-21T08:45:03.642Z,17.19
2022-10-21T08:46:03.230Z,17.20
2022-10-21T08:47:02.790Z,17.22
2022-10-21T08:48:02.732Z,17.26
2022-10-21T08:49:03.123Z,17.28
2022-10-21T08:50:02.722Z,17.32
2022-10-21T08:51:03.016Z,17.36
2022-10-21T08:52:02.894Z,17.34
2022-10-21T08:53:02.839Z,17.35
2022-10-21T08:54:03.495Z,17.36
2022-10-21T08:55:03.433Z,17.37
2022-10-21T08:56:02.925Z,17.37
2022-10-21T08:57:02.669Z,17.39
2022-10-21T08:58:02.569Z,17.39
2022-10-21T08:59:02.848Z,17.41
2022-10-21T09:00:02.939Z,17.41
2022-10-21T09:01:03.023Z,17.37
2022-10-21T09:02:02.099Z,17.36
2022-10-21T09:03:02.497Z,17.41
2022-10-21T09:04:02.441Z,17.42
2022-10-21T09:05:02.299Z,17.43
2022-10-21T09:06:02.197Z,17.42
2022-10-21T09:07:02.662Z,17.43
2022-10-21T09:08:02.980Z,17.45
2022-10-21T09:09:02.563Z,17.45
2022-10-21T09:10:02.895Z,17.48
2022-10-21T09:11:03.004Z,17.45
2022-10-21T09:12:02.955Z,17.42
2022-10-21T09:13:02.811Z,17.36
2022-10-21T09:14:03.044Z,17.34
2022-10-21T09:15:04.195Z,17.36
2022-10-21T09:16:02.804Z,17.37
2022-10-21T09:17:02.698Z,17.43
2022-10-21T09:18:02.323Z,17.47
2022-10-21T09:19:02.784Z,17.52
2022-10-21T09:20:02.260Z,17.51
2022-10-21T09:21:05.667Z,17.49
2022-10-21T09:22:22.492Z,17.48
2022-10-21T09:23:02.606Z,17.46
2022-10-21T09:24:02.230Z,17.50
2022-10-21T09:25:02.263Z,17.51
2022-10-21T09:26:02.883Z,17.53
2022-10-21T09:27:02.839Z,17.58
2022-10-21T09:28:03.482Z,17.61
2022-10-21T09:29:02.671Z,17.63
2022-10-21T09:30:02.703Z,17.60
2022-10-21T09:31:03.016Z,17.60
2022-10-21T09:32:02.994Z,17.63
2022-10-21T09:33:02.897Z,17.61
2022-10-21T09:34:02.664Z,17.59
2022-10-21T09:35:02.848Z,17.56
2022-10-21T09:36:02.825Z,17.55
2022-10-21T09:37:02.376Z,17.52
2022-10-21T09:38:02.445Z,17.49
2022-10-21T09:39:02.332Z,17.45
2022-10-21T09:40:02.329Z,17.42
2022-10-21T09:41:02.216Z,17.40
2022-10-21T09:42:07.315Z,17.38
2022-10-21T09:43:02.720Z,17.35
2022-10-21T09:44:02.707Z,17.34
2022-10-21T09:45:02.816Z,17.31
2022-10-21T09:46:02.712Z,17.26
2022-10-21T09:47:02.850Z,17.27
2022-10-21T09:48:02.930Z,17.25
2022-10-21T09:50:07.262Z,17.22
2022-10-21T09:51:03.104Z,17.19
2022-10-21T09:52:02.921Z,17.18
2022-10-21T09:53:02.599Z,17.17
2022-10-21T09:54:02.901Z,17.19
2022-10-21T09:55:02.940Z,17.20
2022-10-21T09:56:02.824Z,17.20
2022-10-21T09:57:02.410Z,17.20
2022-10-21T09:58:02.024Z,17.19
2022-10-21T09:59:05.125Z,17.20
2022-10-21T10:00:02.146Z,17.17
2022-10-21T10:01:02.448Z,17.14
2022-10-21T10:02:02.807Z,17.15
2022-10-21T10:03:02.760Z,17.15
2022-10-21T10:04:02.395Z,17.18
2022-10-21T10:05:02.979Z,17.16
2022-10-21T10:06:02.517Z,17.22
2022-10-21T10:07:03.178Z,17.19
2022-10-21T10:08:03.206Z,17.19
2022-10-21T10:09:03.152Z,17.20
2022-10-21T10:10:03.196Z,17.23
2022-10-21T10:11:03.376Z,17.27
2022-10-21T10:12:02.808Z,17.31
2022-10-21T10:13:02.558Z,17.34
2022-10-21T10:14:02.904Z,17.35
2022-10-21T10:15:02.502Z,17.36
2022-10-21T10:16:02.372Z,17.36
2022-10-21T10:17:03.121Z,17.37
2022-10-21T10:18:03.237Z,17.37
2022-10-21T10:19:02.927Z,17.37
2022-10-21T10:20:03.171Z,17.39
2022-10-21T10:21:03.130Z,17.44
2022-10-21T10:22:03.914Z,17.43
2022-10-21T10:23:02.474Z,17.40
2022-10-21T10:24:02.754Z,17.40
2022-10-21T10:25:02.444Z,17.39
2022-10-21T10:26:02.395Z,17.37
2022-10-21T10:27:02.889Z,17.33
2022-10-21T10:28:02.560Z,17.31
2022-10-21T10:29:02.667Z,17.31
2022-10-21T10:30:02.826Z,17.32
2022-10-21T10:31:02.699Z,17.37
2022-10-21T10:32:03.411Z,17.42
2022-10-21T10:33:03.442Z,17.43
2022-10-21T10:34:03.071Z,17.40
2022-10-21T10:35:02.875Z,17.37
2022-10-21T10:36:05.515Z,17.35
2022-10-21T10:37:02.766Z,17.33
2022-10-21T10:38:02.610Z,17.30
2022-10-21T10:39:02.520Z,17.31
2022-10-21T10:40:02.755Z,17.30
2022-10-21T10:41:02.678Z,17.25
2022-10-21T10:42:03.385Z,17.25
2022-10-21T10:43:02.944Z,17.25
2022-10-21T10:44:03.031Z,17.28
2022-10-21T10:45:02.982Z,17.32
2022-10-21T10:46:02.861Z,17.32
2022-10-21T10:47:03.528Z,17.32
2022-10-21T10:48:03.471Z,17.37
2022-10-21T10:49:03.508Z,17.38
2022-10-21T10:50:03.476Z,17.41
2022-10-21T10:51:03.472Z,17.42
2022-10-21T10:52:03.166Z,17.42
2022-10-21T10:53:02.798Z,17.45
2022-10-21T10:54:02.881Z,17.44
2022-10-21T10:55:02.945Z,17.45
2022-10-21T10:56:03.150Z,17.51
2022-10-21T10:57:03.306Z,17.57
2022-10-21T10:58:12.723Z,17.64
2022-10-21T10:59:03.059Z,17.68
2022-10-21T11:00:02.984Z,17.74
2022-10-21T11:01:02.978Z,17.79
2022-10-21T11:02:02.236Z,17.84
2022-10-21T11:03:02.830Z,17.90
2022-10-21T11:04:02.539Z,17.96
2022-10-21T11:05:02.543Z,17.97
2022-10-21T11:06:02.250Z,17.95
2022-10-21T11:07:02.418Z,17.99
2022-10-21T11:08:02.496Z,18.01
2022-10-21T11:09:02.727Z,18.03
2022-10-21T11:10:02.727Z,18.05
2022-10-21T11:11:02.734Z,18.04
2022-10-21T11:12:02.870Z,18.04
2022-10-21T11:13:02.384Z,18.05
2022-10-21T11:14:01.931Z,18.09
2022-10-21T11:15:01.971Z,18.12
2022-10-21T11:16:01.885Z,18.12
2022-10-21T11:17:01.952Z,18.15
2022-10-21T11:18:17.076Z,18.16
2022-10-21T11:19:02.362Z,18.20
2022-10-21T11:20:02.679Z,18.21
2022-10-21T11:21:02.641Z,18.23
2022-10-21T11:22:05.942Z,18.25
2022-10-21T11:23:02.941Z,18.31
2022-10-21T11:24:02.856Z,18.37
2022-10-21T11:25:02.912Z,18.42
2022-10-21T11:26:03.068Z,18.44
2022-10-21T11:27:03.026Z,18.45
2022-10-21T11:28:02.670Z,18.50
2022-10-21T11:29:04.844Z,18.51
2022-10-21T11:30:02.473Z,18.55
2022-10-21T11:31:02.530Z,18.57
2022-10-21T11:32:12.978Z,18.57
2022-10-21T11:33:02.457Z,18.60
2022-10-21T11:34:02.139Z,18.61
2022-10-21T11:35:02.313Z,18.63
2022-10-21T11:36:02.478Z,18.65
2022-10-21T11:37:02.268Z,18.65
2022-10-21T11:38:02.923Z,18.68
2022-10-21T11:39:02.598Z,18.69
2022-10-21T11:40:03.508Z,18.72
2022-10-21T11:41:02.720Z,18.71
2022-10-21T11:42:02.815Z,18.77
2022-10-21T11:43:02.698Z,18.79
2022-10-21T11:44:02.223Z,18.85
2022-10-21T11:45:02.310Z,18.89
2022-10-21T11:46:02.331Z,18.92
2022-10-21T11:47:02.661Z,18.95
2022-10-21T11:48:02.386Z,18.98
2022-10-21T11:49:02.673Z,19.01
2022-10-21T11:50:02.376Z,19.04
2022-10-21T11:51:05.235Z,19.08
2022-10-21T11:52:02.480Z,19.09
2022-10-21T11:53:03.062Z,19.09
2022-10-21T11:54:03.051Z,19.10
2022-10-21T11:55:09.871Z,19.15
2022-10-21T11:56:03.340Z,19.15
2022-10-21T11:57:02.962Z,19.18
2022-10-21T11:58:02.597Z,19.21
2022-10-21T11:59:02.500Z,19.21
2022-10-21T12:00:02.572Z,19.22
2022-10-21T12:01:02.721Z,19.24
2022-10-21T12:02:02.379Z,19.28
2022-10-21T12:03:03.135Z,19.33
2022-10-21T12:04:03.230Z,19.40
2022-10-21T12:05:03.210Z,19.47
2022-10-21T12:06:03.212Z,19.51
2022-10-21T12:07:05.677Z,19.56
2022-10-21T12:08:02.966Z,19.58
2022-10-21T12:09:02.937Z,19.58
2022-10-21T12:10:03.505Z,19.56
2022-10-21T12:11:03.563Z,19.60
2022-10-21T12:12:03.280Z,19.64
2022-10-21T12:13:03.093Z,19.64
2022-10-21T12:14:02.762Z,19.72
2022-10-21T12:15:02.793Z,19.81
2022-10-21T12:16:02.878Z,19.88
2022-10-21T12:17:02.979Z,19.90
2022-10-21T12:18:03.804Z,19.95
2022-10-21T12:19:03.364Z,20.02
2022-10-21T12:20:03.389Z,20.06
2022-10-21T12:21:03.326Z,20.16
2022-10-21T12:22:03.641Z,20.22
2022-10-21T12:23:02.860Z,20.26
2022-10-21T12:24:02.923Z,20.27
2022-10-21T12:25:03.001Z,20.32
2022-10-21T12:26:03.220Z,20.35
2022-10-21T12:27:03.478Z,20.47
2022-10-21T12:28:04.004Z,20.54
2022-10-21T12:29:03.823Z,20.60
2022-10-21T12:30:03.908Z,20.67
2022-10-21T12:31:03.870Z,20.75
2022-10-21T12:32:03.928Z,20.84
2022-10-21T12:33:03.626Z,20.90
2022-10-21T12:34:03.170Z,20.98
2022-10-21T12:35:03.186Z,21.06
2022-10-21T12:36:03.629Z,21.09
2022-10-21T12:37:03.235Z,21.14
2022-10-21T12:38:03.874Z,21.19
2022-10-21T12:39:03.452Z,21.26
2022-10-21T12:40:03.499Z,21.26
2022-10-21T12:41:03.504Z,21.26
2022-10-21T12:42:03.551Z,21.29
2022-10-21T12:43:04.022Z,21.29
2022-10-21T12:44:03.758Z,21.31
2022-10-21T12:45:03.838Z,21.31
2022-10-21T12:46:03.917Z,21.35
2022-10-21T12:47:03.909Z,21.35
2022-10-21T12:48:03.428Z,21.35
2022-10-21T12:49:03.511Z,21.34
2022-10-21T12:50:03.494Z,21.35
2022-10-21T12:51:02.981Z,21.28
2022-10-21T12:52:03.382Z,21.30
2022-10-21T12:53:03.502Z,21.32
2022-10-21T12:54:03.640Z,21.37
2022-10-21T12:55:03.653Z,21.34